Time;durP1;ratioP1;P1;durP2;ratioP2;P2;SDS_P1;SDS_P2;PMS_P1;PMS_P2;Temp;Humidity;BMP_temperature;BMP_pressure;BME280_temperature;BME280_humidity;BME280_pressure;Samples;Min_cycle;Max_cycle;Signal;HPM_P1;HPM_P2
2022/03/23 00:01:48;;;;;;;15.02;3.28;;;24.40;99.90;;;;;;5012477;28;20215;-79
2022/03/23 00:04:19;;;;;;;9.15;3.10;;;24.30;99.90;;;;;;5013759;28;20195;-77
2022/03/23 00:06:49;;;;;;;12.55;3.08;;;24.30;99.90;;;;;;5014813;28;20214;-77
2022/03/23 00:09:20;;;;;;;15.50;3.63;;;24.10;99.90;;;;;;5010940;28;20183;-77
2022/03/23 00:11:51;;;;;;;12.75;3.17;;;24.10;99.90;;;;;;5014546;28;20192;-77
2022/03/23 00:14:21;;;;;;;12.38;3.17;;;24.10;99.90;;;;;;5012923;28;20662;-75
2022/03/23 00:16:54;;;;;;;11.48;3.50;;;24.10;99.90;;;;;;5012308;28;20245;-76
2022/03/23 00:19:25;;;;;;;12.65;3.08;;;24.00;99.90;;;;;;5014681;28;20191;-77
2022/03/23 00:21:55;;;;;;;13.90;2.83;;;24.00;99.90;;;;;;5009808;28;20207;-77
2022/03/23 00:24:26;;;;;;;11.60;3.28;;;24.10;99.90;;;;;;5012135;28;20245;-78
2022/03/23 00:26:56;;;;;;;10.95;2.72;;;24.10;99.90;;;;;;5007290;28;20203;-77
2022/03/23 00:29:27;;;;;;;13.25;2.72;;;24.10;99.90;;;;;;5014193;28;20188;-77
2022/03/23 00:31:59;;;;;;;12.48;2.58;;;24.10;99.90;;;;;;5012346;28;20202;-78
2022/03/23 00:34:30;;;;;;;12.07;3.10;;;24.30;99.90;;;;;;5014353;28;20191;-76
2022/03/23 00:37:01;;;;;;;11.20;2.75;;;24.40;99.90;;;;;;5013734;28;20191;-77
2022/03/23 00:39:31;;;;;;;10.70;2.38;;;24.60;99.90;;;;;;5013470;28;20681;-77
2022/03/23 00:42:02;;;;;;;10.63;2.90;;;24.70;99.90;;;;;;5012156;28;20250;-77
2022/03/23 00:44:33;;;;;;;9.13;2.40;;;24.80;99.90;;;;;;5013490;28;20230;-76
2022/03/23 00:47:06;;;;;;;8.88;2.67;;;24.70;99.90;;;;;;5013396;28;20285;-78
2022/03/23 00:49:37;;;;;;;7.50;2.45;;;24.70;99.90;;;;;;5007984;28;20198;-77
2022/03/23 00:52:08;;;;;;;7.25;2.20;;;24.60;99.90;;;;;;5004775;28;20558;-79
2022/03/23 00:54:39;;;;;;;7.63;2.10;;;24.60;99.90;;;;;;5009008;28;20191;-76
2022/03/23 00:57:10;;;;;;;10.45;2.28;;;24.50;99.90;;;;;;5013697;28;20187;-77
2022/03/23 00:59:42;;;;;;;10.65;2.58;;;24.50;99.90;;;;;;5013858;28;20191;-76
2022/03/23 01:02:14;;;;;;;7.97;2.28;;;24.50;99.90;;;;;;5011968;28;20218;-76
2022/03/23 01:04:45;;;;;;;9.80;2.33;;;24.50;99.90;;;;;;5014275;28;20187;-78
2022/03/23 01:07:17;;;;;;;7.95;2.22;;;24.40;99.90;;;;;;5012775;28;20184;-77
2022/03/23 01:09:47;;;;;;;10.75;2.60;;;24.40;99.90;;;;;;5013207;28;20195;-74
2022/03/23 01:12:18;;;;;;;12.02;2.78;;;24.30;99.90;;;;;;5011520;28;20530;-75
2022/03/23 01:14:49;;;;;;;8.93;2.63;;;24.40;99.90;;;;;;5012549;28;20195;-77
2022/03/23 01:17:21;;;;;;;10.27;2.72;;;24.50;99.90;;;;;;5013389;28;20191;-75
2022/03/23 01:19:52;;;;;;;11.00;3.20;;;24.50;99.90;;;;;;5010947;28;20275;-75
2022/03/23 01:22:23;;;;;;;10.95;3.50;;;24.50;99.90;;;;;;5012600;28;20274;-76
2022/03/23 01:24:53;;;;;;;9.93;3.35;;;24.50;99.90;;;;;;5013655;28;20191;-75
2022/03/23 01:27:24;;;;;;;10.23;3.72;;;24.40;99.90;;;;;;5004327;28;20278;-77
2022/03/23 01:29:55;;;;;;;9.65;3.97;;;24.30;99.90;;;;;;5011256;28;20187;-74
2022/03/23 01:32:27;;;;;;;13.35;3.83;;;24.30;99.90;;;;;;5012458;28;20183;-76
2022/03/23 01:34:58;;;;;;;10.68;3.70;;;24.20;99.90;;;;;;5011869;28;20279;-79
2022/03/23 01:37:29;;;;;;;9.43;3.20;;;24.10;99.90;;;;;;5004302;28;20195;-77
2022/03/23 01:39:59;;;;;;;15.10;4.10;;;24.00;99.90;;;;;;5010687;28;20210;-75
2022/03/23 01:42:31;;;;;;;11.45;3.95;;;23.90;99.90;;;;;;5010245;28;20191;-77
2022/03/23 01:45:03;;;;;;;11.18;4.10;;;23.80;99.90;;;;;;5007349;28;20198;-76
2022/03/23 01:47:37;;;;;;;12.50;4.28;;;23.70;99.90;;;;;;5033373;22;20281;-76
2022/03/23 01:50:09;;;;;;;12.63;4.28;;;23.70;99.90;;;;;;5027462;28;20195;-73
2022/03/23 01:52:40;;;;;;;8.38;3.80;;;23.70;99.90;;;;;;5025392;28;20191;-73
2022/03/23 01:55:13;;;;;;;14.13;4.05;;;23.60;99.90;;;;;;5031812;28;20218;-72
2022/03/23 01:57:46;;;;;;;8.68;3.40;;;23.60;99.90;;;;;;5023226;28;20199;-77
2022/03/23 02:00:18;;;;;;;14.13;3.85;;;23.60;99.90;;;;;;5016131;28;20194;-71
2022/03/23 02:02:51;;;;;;;11.88;3.38;;;23.60;99.90;;;;;;5025992;28;20721;-73
2022/03/23 02:05:22;;;;;;;9.38;3.28;;;23.60;99.90;;;;;;5021891;28;20194;-71
2022/03/23 02:07:53;;;;;;;12.43;3.65;;;23.60;99.90;;;;;;5024161;28;20194;-73
2022/03/23 02:10:23;;;;;;;14.98;3.90;;;23.60;99.90;;;;;;5026791;28;20189;-75
2022/03/23 02:12:54;;;;;;;10.10;3.45;;;23.60;99.90;;;;;;5027999;28;20193;-72
2022/03/23 02:15:26;;;;;;;13.55;3.42;;;23.70;99.90;;;;;;5025626;28;20361;-73
2022/03/23 02:17:59;;;;;;;11.80;3.50;;;23.80;99.90;;;;;;5024556;28;20273;-78
2022/03/23 02:20:29;;;;;;;12.90;3.50;;;23.80;99.90;;;;;;5014659;28;20187;-80
2022/03/23 02:23:02;;;;;;;11.75;3.40;;;23.70;99.90;;;;;;5028246;28;20231;-78
2022/03/23 02:25:33;;;;;;;8.63;3.30;;;23.70;99.90;;;;;;5026686;28;20183;-79
2022/03/23 02:28:04;;;;;;;10.25;3.17;;;23.60;99.90;;;;;;5024984;28;20194;-79
2022/03/23 02:30:35;;;;;;;12.48;3.67;;;23.60;99.90;;;;;;5029620;28;20187;-80
2022/03/23 02:33:06;;;;;;;9.75;3.00;;;23.60;99.90;;;;;;5017782;28;20245;-77
2022/03/23 02:35:36;;;;;;;11.95;3.00;;;23.50;99.90;;;;;;5026031;28;20595;-78
2022/03/23 02:38:09;;;;;;;12.82;3.10;;;23.40;99.90;;;;;;5023341;28;20191;-79
2022/03/23 02:40:40;;;;;;;11.98;3.00;;;23.40;99.90;;;;;;5027050;28;20215;-80
2022/03/23 02:43:10;;;;;;;11.70;2.90;;;23.50;99.90;;;;;;5030689;28;20198;-78
2022/03/23 02:45:41;;;;;;;8.27;2.45;;;23.40;99.90;;;;;;5027202;28;20198;-79
2022/03/23 02:48:12;;;;;;;10.82;2.60;;;23.40;99.90;;;;;;5013813;28;20242;-79
2022/03/23 02:50:42;;;;;;;11.13;2.40;;;23.40;99.90;;;;;;5012462;28;20191;-78
2022/03/23 03:01:56;;;;;;;10.70;2.03;;;23.40;99.90;;;;;;5005663;28;20217;-80
2022/03/23 03:04:27;;;;;;;10.98;2.08;;;23.50;99.90;;;;;;5015095;28;20195;-78
2022/03/23 03:07:00;;;;;;;7.30;1.65;;;23.50;99.90;;;;;;5014198;28;20198;-73
2022/03/23 03:09:33;;;;;;;8.25;1.98;;;23.40;99.90;;;;;;5013928;28;20202;-78
2022/03/23 03:12:04;;;;;;;8.93;1.92;;;23.30;99.90;;;;;;5010883;28;20188;-80
2022/03/23 03:14:34;;;;;;;7.25;1.70;;;23.30;99.90;;;;;;5013753;28;20526;-80
2022/03/23 03:17:07;;;;;;;8.13;1.65;;;23.30;99.90;;;;;;5018855;28;20233;-79
2022/03/23 03:19:39;;;;;;;11.32;1.88;;;23.30;99.90;;;;;;5014608;28;20199;-77
2022/03/23 03:22:10;;;;;;;10.27;1.73;;;23.40;99.90;;;;;;5012734;28;20222;-78
2022/03/23 03:24:42;;;;;;;10.88;2.08;;;23.50;99.90;;;;;;5019072;28;20183;-78
2022/03/23 03:27:13;;;;;;;8.50;1.50;;;23.50;99.90;;;;;;5010193;28;20188;-80
2022/03/23 03:29:43;;;;;;;9.10;1.88;;;23.40;99.90;;;;;;5012475;28;20712;-79
2022/03/23 03:32:14;;;;;;;8.57;1.52;;;23.40;99.90;;;;;;5016188;28;20187;-79
2022/03/23 03:34:46;;;;;;;9.50;1.90;;;23.30;99.90;;;;;;5013964;28;20240;-79
2022/03/23 03:37:17;;;;;;;10.60;1.55;;;23.30;99.90;;;;;;5009934;28;20286;-79
2022/03/23 03:39:49;;;;;;;10.77;1.73;;;23.20;99.90;;;;;;5023399;28;20198;-80
2022/03/23 03:42:20;;;;;;;9.45;1.90;;;23.20;99.90;;;;;;5015027;28;20680;-79
2022/03/23 03:44:51;;;;;;;9.60;1.70;;;23.30;99.90;;;;;;5022493;28;20906;-79
2022/03/23 03:47:23;;;;;;;13.27;1.90;;;23.20;99.90;;;;;;5017566;28;20716;-76
2022/03/23 03:49:54;;;;;;;9.68;2.33;;;23.40;99.90;;;;;;5017920;28;20190;-78
2022/03/23 03:52:24;;;;;;;10.63;1.67;;;23.60;99.90;;;;;;5016069;28;20187;-79
2022/03/23 03:54:57;;;;;;;11.30;1.70;;;23.60;99.90;;;;;;5015196;28;20199;-79
2022/03/23 03:57:27;;;;;;;6.72;1.80;;;23.60;99.90;;;;;;5015534;28;20289;-78
2022/03/23 03:59:58;;;;;;;9.50;1.60;;;23.60;99.90;;;;;;5019482;28;20198;-80
2022/03/23 04:02:29;;;;;;;11.00;1.95;;;23.50;99.90;;;;;;5031461;28;20209;-79
2022/03/23 04:04:59;;;;;;;9.05;1.70;;;23.50;99.90;;;;;;5017429;28;20191;-78
2022/03/23 04:07:30;;;;;;;8.88;1.83;;;23.60;99.90;;;;;;5015490;28;20191;-77
2022/03/23 04:10:03;;;;;;;7.03;1.60;;;23.60;99.90;;;;;;5015336;28;20666;-78
2022/03/23 04:12:34;;;;;;;7.22;1.67;;;23.60;99.90;;;;;;5025701;28;20245;-79
2022/03/23 04:15:05;;;;;;;10.32;1.75;;;23.50;99.90;;;;;;5026619;28;20232;-79
2022/03/23 04:17:35;;;;;;;8.85;1.70;;;23.50;99.90;;;;;;5021616;28;20627;-77
2022/03/23 04:20:06;;;;;;;6.80;1.30;;;23.40;99.90;;;;;;5023274;28;20199;-80
2022/03/23 04:22:38;;;;;;;10.15;1.50;;;23.40;99.90;;;;;;5014210;28;20215;-72
2022/03/23 04:25:12;;;;;;;8.65;1.50;;;23.30;99.90;;;;;;5018266;28;20195;-79
2022/03/23 04:27:49;;;;;;;8.43;1.80;;;23.20;99.90;;;;;;5013351;28;20206;-78
2022/03/23 04:30:20;;;;;;;8.85;1.95;;;23.20;99.90;;;;;;5014985;28;20191;-72
2022/03/23 04:32:54;;;;;;;9.35;1.60;;;23.10;99.90;;;;;;5014254;28;20203;-79
2022/03/23 04:35:24;;;;;;;15.05;1.65;;;23.10;99.90;;;;;;5013203;28;20245;-79
2022/03/23 04:37:55;;;;;;;11.07;1.95;;;23.00;99.90;;;;;;5014499;28;20203;-80
2022/03/23 04:40:28;;;;;;;9.38;1.63;;;23.00;99.90;;;;;;5014665;28;20203;-79
2022/03/23 04:42:58;;;;;;;8.15;1.77;;;23.00;99.90;;;;;;5011314;28;20611;-75
2022/03/23 04:45:29;;;;;;;11.85;1.50;;;23.00;99.90;;;;;;5013747;28;20203;-77
2022/03/23 04:47:59;;;;;;;12.05;1.70;;;23.20;99.90;;;;;;5012022;28;20238;-75
2022/03/23 04:50:30;;;;;;;8.55;1.42;;;23.30;99.90;;;;;;5013039;28;20376;-78
2022/03/23 04:53:01;;;;;;;13.07;1.60;;;23.30;99.90;;;;;;5012530;28;20642;-73
2022/03/23 04:55:34;;;;;;;8.27;1.60;;;23.40;99.90;;;;;;5014856;28;20205;-78
2022/03/23 04:58:04;;;;;;;9.27;1.38;;;23.40;99.90;;;;;;5013587;28;20191;-77
2022/03/23 05:00:35;;;;;;;11.05;1.50;;;23.30;99.90;;;;;;5018915;28;20194;-78
2022/03/23 05:03:06;;;;;;;8.27;1.35;;;23.20;99.90;;;;;;5030414;28;20642;-77
2022/03/23 05:05:37;;;;;;;9.35;1.52;;;23.20;99.90;;;;;;5024790;28;20202;-76
2022/03/23 05:08:08;;;;;;;8.38;1.35;;;23.20;99.90;;;;;;5018035;28;20199;-75
2022/03/23 05:10:40;;;;;;;10.38;1.48;;;23.20;99.90;;;;;;5016898;28;20187;-77
2022/03/23 05:13:11;;;;;;;8.77;1.38;;;23.20;99.90;;;;;;5018645;28;20562;-79
2022/03/23 05:15:41;;;;;;;8.07;1.52;;;23.30;99.90;;;;;;5027764;28;20187;-75
2022/03/23 05:18:12;;;;;;;8.73;1.48;;;23.50;99.90;;;;;;5020450;28;20195;-77
2022/03/23 05:20:43;;;;;;;5.85;1.10;;;23.50;99.90;;;;;;5011410;28;20187;-74
2022/03/23 05:23:13;;;;;;;12.77;1.55;;;23.40;99.90;;;;;;5016743;28;20215;-77
2022/03/23 05:25:46;;;;;;;6.38;1.33;;;23.30;99.90;;;;;;5020365;28;20581;-76
2022/03/23 05:28:16;;;;;;;8.73;1.30;;;23.30;99.90;;;;;;5016186;28;20203;-74
2022/03/23 05:30:47;;;;;;;6.30;1.30;;;23.20;99.90;;;;;;5020281;28;20195;-78
2022/03/23 05:33:18;;;;;;;7.85;1.30;;;23.10;99.90;;;;;;5016094;28;20191;-79
2022/03/23 05:35:48;;;;;;;7.93;1.35;;;23.00;99.90;;;;;;5013628;28;20193;-84
2022/03/23 05:38:19;;;;;;;8.35;1.17;;;22.90;99.90;;;;;;5021638;28;20237;-78
2022/03/23 05:40:51;;;;;;;8.25;1.75;;;22.90;99.90;;;;;;5021838;28;20237;-78
2022/03/23 05:43:22;;;;;;;6.75;1.20;;;22.90;99.90;;;;;;5015779;28;20223;-75
2022/03/23 05:45:53;;;;;;;9.32;1.88;;;22.80;99.90;;;;;;5019505;28;20183;-78
2022/03/23 05:48:27;;;;;;;8.98;1.65;;;22.80;99.90;;;;;;5014057;28;20280;-80
2022/03/23 05:50:58;;;;;;;10.45;1.70;;;22.80;99.90;;;;;;5021438;28;20195;-78
2022/03/23 05:53:29;;;;;;;12.20;1.73;;;22.80;99.90;;;;;;5017369;28;20700;-78
2022/03/23 05:56:03;;;;;;;18.23;1.92;;;22.80;99.90;;;;;;5011257;28;20187;-74
2022/03/23 05:58:34;;;;;;;12.63;1.85;;;22.70;99.90;;;;;;5024614;28;20190;-78
2022/03/23 06:01:05;;;;;;;9.55;1.50;;;22.70;99.90;;;;;;5021915;28;20225;-79
2022/03/23 06:03:36;;;;;;;10.57;2.00;;;22.70;99.90;;;;;;5023254;28;20681;-78
2022/03/23 06:06:09;;;;;;;11.15;2.03;;;22.60;99.90;;;;;;5018626;28;20197;-77
2022/03/23 06:08:39;;;;;;;13.88;2.03;;;22.60;99.90;;;;;;5017522;28;20638;-78
2022/03/23 06:11:12;;;;;;;7.75;1.45;;;22.60;99.90;;;;;;5019778;28;20198;-77
2022/03/23 06:13:44;;;;;;;13.07;1.98;;;22.60;99.90;;;;;;5014244;28;20589;-78
2022/03/23 06:16:14;;;;;;;8.82;1.92;;;22.60;99.90;;;;;;5012824;28;20190;-78
2022/03/23 06:18:45;;;;;;;11.25;1.70;;;22.60;99.90;;;;;;5013807;28;20273;-78
2022/03/23 06:21:16;;;;;;;13.55;1.95;;;22.50;99.90;;;;;;5013368;28;20186;-79
2022/03/23 06:23:46;;;;;;;9.88;1.90;;;22.50;99.90;;;;;;5013034;28;20587;-79
2022/03/23 06:26:19;;;;;;;12.70;1.85;;;22.50;99.90;;;;;;5015076;28;20548;-79
2022/03/23 06:28:50;;;;;;;11.98;2.25;;;22.50;99.90;;;;;;5015034;28;20192;-79
2022/03/23 06:31:20;;;;;;;10.65;1.90;;;22.50;99.90;;;;;;5014210;28;20191;-79
2022/03/23 06:33:51;;;;;;;14.18;2.00;;;22.50;99.90;;;;;;5016732;28;20317;-77
2022/03/23 06:36:22;;;;;;;11.98;1.85;;;22.40;99.90;;;;;;5013569;28;20187;-79
2022/03/23 06:38:52;;;;;;;10.55;1.88;;;22.40;99.90;;;;;;5013244;28;20191;-77
2022/03/23 06:41:25;;;;;;;14.88;1.98;;;22.30;99.90;;;;;;5024145;28;20186;-78
2022/03/23 06:43:55;;;;;;;13.55;1.80;;;22.30;99.90;;;;;;5014385;28;20261;-79
2022/03/23 06:46:26;;;;;;;12.25;1.85;;;22.30;99.90;;;;;;5024305;28;20210;-79
2022/03/23 06:48:57;;;;;;;17.30;2.17;;;22.20;99.90;;;;;;5021054;28;20230;-81
2022/03/23 06:51:28;;;;;;;14.57;1.95;;;22.30;99.90;;;;;;5023286;28;20552;-79
2022/03/23 06:53:58;;;;;;;10.45;1.73;;;22.30;99.90;;;;;;5019974;28;20191;-79
2022/03/23 06:56:31;;;;;;;9.25;1.77;;;22.20;99.90;;;;;;5021353;28;20186;-79
2022/03/23 06:59:01;;;;;;;9.48;1.77;;;22.20;99.90;;;;;;5012313;28;20191;-80
2022/03/23 07:01:32;;;;;;;9.18;2.05;;;22.20;99.90;;;;;;5013369;28;20190;-76
2022/03/23 07:04:03;;;;;;;8.23;1.60;;;22.20;99.90;;;;;;5015303;28;20211;-79
2022/03/23 07:06:33;;;;;;;12.32;1.70;;;22.10;99.90;;;;;;5013055;28;20191;-71
2022/03/23 07:11:53;;;;;;;14.07;1.88;;;22.10;99.90;;;;;;5014855;28;20201;-74
2022/03/23 07:14:24;;;;;;;14.10;1.83;;;22.10;99.90;;;;;;5014440;28;20198;-77
2022/03/23 07:16:54;;;;;;;14.73;2.22;;;22.10;99.90;;;;;;5018091;28;20728;-73
2022/03/23 07:19:25;;;;;;;12.25;2.17;;;22.10;99.90;;;;;;5015193;28;20182;-81
2022/03/23 07:21:57;;;;;;;14.15;2.25;;;22.10;99.90;;;;;;5016744;28;20187;-78
2022/03/23 07:24:28;;;;;;;11.32;2.00;;;22.10;99.90;;;;;;5015932;28;20190;-77
2022/03/23 07:27:01;;;;;;;17.20;2.50;;;22.10;99.90;;;;;;5021008;28;20690;-79
2022/03/23 07:29:32;;;;;;;12.15;1.83;;;22.10;99.90;;;;;;5013042;28;20267;-76
2022/03/23 07:32:03;;;;;;;14.20;2.40;;;22.10;99.90;;;;;;5017626;28;20187;-81
2022/03/23 07:34:34;;;;;;;8.90;1.63;;;22.20;99.90;;;;;;5018990;28;20189;-81
2022/03/23 07:37:05;;;;;;;13.43;2.25;;;22.20;99.90;;;;;;5015317;28;20195;-81
2022/03/23 07:39:35;;;;;;;15.43;2.30;;;22.20;99.90;;;;;;5014767;28;20191;-82
2022/03/23 07:42:08;;;;;;;13.60;2.10;;;22.20;99.90;;;;;;5017850;28;20562;-80
2022/03/23 07:44:39;;;;;;;12.65;2.10;;;22.20;99.90;;;;;;5018654;28;20557;-81
2022/03/23 07:47:12;;;;;;;12.05;1.98;;;22.20;99.90;;;;;;5015699;28;20235;-79
2022/03/23 07:49:42;;;;;;;14.32;2.22;;;22.10;99.90;;;;;;5013243;28;20199;-81
2022/03/23 07:52:13;;;;;;;12.50;2.15;;;22.10;99.90;;;;;;5023014;28;20188;-77
2022/03/23 07:54:44;;;;;;;12.02;2.30;;;22.00;99.90;;;;;;5017171;28;20187;-80
2022/03/23 07:57:17;;;;;;;15.45;2.55;;;22.10;99.90;;;;;;5016694;28;20192;-80
2022/03/23 07:59:48;;;;;;;14.57;2.53;;;22.10;99.90;;;;;;5013850;28;20587;-78
2022/03/23 08:02:18;;;;;;;17.08;3.10;;;22.10;99.90;;;;;;5016504;28;20206;-80
2022/03/23 08:04:49;;;;;;;16.17;2.42;;;22.10;99.90;;;;;;5016175;28;20233;-77
2022/03/23 08:07:20;;;;;;;12.60;2.22;;;22.10;99.90;;;;;;5016821;28;20191;-80
2022/03/23 08:09:50;;;;;;;18.17;2.70;;;22.10;99.90;;;;;;5012745;28;20209;-80
2022/03/23 08:12:23;;;;;;;12.18;2.08;;;22.10;99.90;;;;;;5018933;28;20183;-80
2022/03/23 08:14:53;;;;;;;16.40;2.60;;;22.10;99.90;;;;;;5013355;28;20638;-80
2022/03/23 08:17:24;;;;;;;13.35;2.58;;;22.00;99.90;;;;;;5014905;28;20198;-80
2022/03/23 08:22:38;;;;;;;14.00;2.65;;;21.90;99.90;;;;;;5012419;28;20222;-80
2022/03/23 08:25:09;;;;;;;14.77;2.33;;;21.80;99.90;;;;;;5015125;28;20210;-78
2022/03/23 08:27:41;;;;;;;15.80;2.50;;;21.80;99.90;;;;;;5014107;28;20187;-80
2022/03/23 08:30:13;;;;;;;14.32;2.55;;;21.80;99.90;;;;;;5011314;28;20246;-80
2022/03/23 08:32:44;;;;;;;14.20;2.50;;;21.70;99.90;;;;;;5013965;28;20245;-82
2022/03/23 08:35:15;;;;;;;14.52;1.95;;;21.60;99.90;;;;;;5014076;28;20187;-80
2022/03/23 08:37:45;;;;;;;13.05;2.15;;;21.60;99.90;;;;;;5013500;28;20581;-78
2022/03/23 08:40:16;;;;;;;15.82;2.67;;;21.50;99.90;;;;;;5013763;28;20199;-78
2022/03/23 08:42:49;;;;;;;17.05;2.40;;;21.50;99.90;;;;;;5013876;28;20269;-78
2022/03/23 08:45:20;;;;;;;14.88;2.40;;;21.50;99.90;;;;;;5016284;28;20191;-78
2022/03/23 08:47:51;;;;;;;16.42;2.50;;;21.40;99.90;;;;;;5019015;28;20329;-78
2022/03/23 08:50:22;;;;;;;12.30;2.50;;;21.40;99.90;;;;;;5019315;28;20187;-73
2022/03/23 08:52:53;;;;;;;16.08;2.80;;;21.40;99.90;;;;;;5013643;28;20198;-80
2022/03/23 08:55:25;;;;;;;16.88;2.55;;;21.40;99.90;;;;;;5016300;28;20187;-79
2022/03/23 08:57:58;;;;;;;14.27;2.13;;;21.40;99.90;;;;;;5016725;28;20273;-80
2022/03/23 09:00:28;;;;;;;14.52;2.55;;;21.50;99.90;;;;;;5015338;28;20191;-79
2022/03/23 09:02:59;;;;;;;17.75;2.60;;;21.50;99.90;;;;;;5014179;28;20218;-79
2022/03/23 09:05:29;;;;;;;14.18;2.70;;;21.50;99.90;;;;;;5012383;28;20195;-78
2022/03/23 09:08:01;;;;;;;17.38;2.90;;;21.50;99.90;;;;;;5018480;28;20547;-79
2022/03/23 09:10:32;;;;;;;16.52;2.42;;;21.50;99.90;;;;;;5015023;28;20191;-75
2022/03/23 09:13:04;;;;;;;20.08;2.92;;;21.50;99.90;;;;;;5013021;28;20194;-80
2022/03/23 09:15:35;;;;;;;16.85;2.85;;;21.40;99.90;;;;;;5014884;28;20246;-80
2022/03/23 09:18:07;;;;;;;15.20;2.47;;;21.40;99.90;;;;;;5014349;28;20195;-80
2022/03/23 09:20:38;;;;;;;19.05;2.03;;;21.30;99.90;;;;;;5015552;28;20190;-78
2022/03/23 09:23:09;;;;;;;18.23;2.47;;;21.30;99.90;;;;;;5013783;28;20215;-79
2022/03/23 09:25:43;;;;;;;11.88;2.22;;;21.30;99.90;;;;;;5016491;28;20270;-79
2022/03/23 09:28:21;;;;;;;16.23;2.45;;;21.30;99.90;;;;;;5012176;28;20237;-80
2022/03/23 09:30:52;;;;;;;17.85;2.58;;;21.30;99.90;;;;;;5014159;28;20245;-80
2022/03/23 09:33:23;;;;;;;14.45;2.40;;;21.40;99.90;;;;;;5012554;28;20237;-80
2022/03/23 09:35:53;;;;;;;18.35;2.80;;;21.30;99.90;;;;;;5015640;28;20191;-81
2022/03/23 09:38:26;;;;;;;17.75;2.78;;;21.30;99.90;;;;;;5017931;28;20642;-80
2022/03/23 09:40:57;;;;;;;17.10;2.15;;;21.30;99.90;;;;;;5013057;28;20187;-81
2022/03/23 09:43:30;;;;;;;18.48;2.60;;;21.30;99.90;;;;;;5017845;28;20581;-80
2022/03/23 09:46:01;;;;;;;18.25;2.25;;;21.20;99.90;;;;;;5011782;28;21058;-80
2022/03/23 09:48:34;;;;;;;15.40;2.45;;;21.20;99.90;;;;;;5017134;28;20296;-78
2022/03/23 09:51:06;;;;;;;20.35;2.60;;;21.20;99.90;;;;;;5012243;28;20216;-81
2022/03/23 09:53:37;;;;;;;20.05;2.83;;;21.20;99.90;;;;;;5015367;28;20194;-80
2022/03/23 09:56:08;;;;;;;15.57;2.65;;;21.30;99.90;;;;;;5016074;28;20647;-80
2022/03/23 09:58:43;;;;;;;16.20;2.33;;;21.20;99.90;;;;;;5015955;28;20201;-81
2022/03/23 10:01:58;;;;;;;18.42;3.15;;;21.30;99.90;;;;;;5015683;28;20199;-80
2022/03/23 10:05:11;;;;;;;18.95;2.55;;;21.30;99.90;;;;;;5009036;28;20226;-79
2022/03/23 10:07:50;;;;;;;16.58;2.47;;;21.30;99.90;;;;;;4968491;28;20296;-82
2022/03/23 10:10:52;;;;;;;13.18;2.42;;;21.30;99.90;;;;;;5012110;28;20324;-78
2022/03/23 10:14:06;;;;;;;19.13;2.25;;;21.20;99.90;;;;;;5001638;28;20202;-74
2022/03/23 10:17:20;;;;;;;14.60;2.70;;;21.20;99.90;;;;;;5014535;28;20677;-76
2022/03/23 10:19:53;;;;;;;12.40;2.33;;;21.20;99.90;;;;;;4966322;28;20210;-75
2022/03/23 10:22:28;;;;;;;13.43;2.60;;;21.20;99.90;;;;;;5017266;28;20242;-76
2022/03/23 10:25:08;;;;;;;13.85;2.15;;;21.30;99.90;;;;;;5017094;28;20218;-75
2022/03/23 10:27:39;;;;;;;16.30;2.35;;;21.30;99.90;;;;;;5019369;28;20227;-76
2022/03/23 10:30:11;;;;;;;18.52;2.40;;;21.30;99.90;;;;;;5017747;28;20186;-72
2022/03/23 10:32:43;;;;;;;13.88;2.17;;;21.20;99.90;;;;;;5022691;28;20198;-79
2022/03/23 10:35:17;;;;;;;9.98;2.15;;;21.30;99.90;;;;;;5010620;28;20187;-74
2022/03/23 10:37:48;;;;;;;17.92;2.30;;;21.30;99.90;;;;;;5013693;28;20195;-75
2022/03/23 10:40:21;;;;;;;17.98;2.10;;;21.30;99.90;;;;;;5018280;28;20191;-73
2022/03/23 10:42:53;;;;;;;14.68;2.50;;;21.30;99.90;;;;;;5017328;28;20199;-76
2022/03/23 10:45:24;;;;;;;14.40;2.50;;;21.30;99.90;;;;;;5028714;28;20186;-78
2022/03/23 10:47:55;;;;;;;12.80;2.20;;;21.30;99.90;;;;;;5024096;28;20321;-77
2022/03/23 10:50:28;;;;;;;16.75;2.08;;;21.30;99.90;;;;;;5022636;28;20187;-74
2022/03/23 10:53:00;;;;;;;14.77;2.13;;;21.30;99.90;;;;;;5022261;28;20233;-74
2022/03/23 10:55:32;;;;;;;14.93;2.35;;;21.30;99.90;;;;;;5024462;28;20643;-73
2022/03/23 10:58:24;;;;;;;9.05;2.00;;;21.30;99.90;;;;;;5023030;28;20198;-73
2022/03/23 11:00:59;;;;;;;16.48;2.10;;;21.30;99.90;;;;;;5035506;28;20328;-73
2022/03/23 11:03:40;;;;;;;14.43;2.08;;;21.30;99.90;;;;;;5029139;28;20216;-76
2022/03/23 11:06:14;;;;;;;12.18;2.63;;;21.30;99.90;;;;;;5019618;28;20193;-73
2022/03/23 11:08:46;;;;;;;17.92;2.10;;;21.30;99.90;;;;;;5024071;28;20193;-77
2022/03/23 11:16:53;;;;;;;19.90;2.45;;;21.30;99.90;;;;;;5018282;28;20712;-76
2022/03/23 11:19:26;;;;;;;14.98;2.30;;;21.30;99.90;;;;;;5022550;28;20186;-74
2022/03/23 11:22:06;;;;;;;18.48;2.17;;;21.40;99.90;;;;;;5023694;28;20195;-80
2022/03/23 11:24:38;;;;;;;17.40;2.13;;;21.30;99.90;;;;;;5019318;28;20221;-75
2022/03/23 11:27:10;;;;;;;16.63;2.22;;;21.30;99.90;;;;;;5018881;28;20183;-75
2022/03/23 11:29:42;;;;;;;17.58;2.13;;;21.40;99.90;;;;;;5020683;28;20483;-76
2022/03/23 11:32:15;;;;;;;11.40;2.10;;;21.30;99.90;;;;;;5020950;28;20556;-77
2022/03/23 11:34:50;;;;;;;19.80;2.28;;;21.30;99.90;;;;;;5021550;28;20318;-72
2022/03/23 11:37:27;;;;;;;13.07;2.10;;;21.30;99.90;;;;;;5035080;28;20190;-80
2022/03/23 11:39:58;;;;;;;14.80;2.75;;;21.30;99.90;;;;;;5021518;28;20580;-78
2022/03/23 11:42:29;;;;;;;12.70;2.40;;;21.30;99.90;;;;;;5025220;28;20197;-75
2022/03/23 11:45:01;;;;;;;12.63;2.42;;;21.30;99.90;;;;;;5022426;28;20211;-72
2022/03/23 11:47:40;;;;;;;15.93;2.30;;;21.30;99.90;;;;;;5018976;28;20260;-75
2022/03/23 11:50:22;;;;;;;15.88;2.45;;;21.30;99.90;;;;;;5019916;28;20195;-80
2022/03/23 11:53:01;;;;;;;10.30;2.28;;;21.30;99.90;;;;;;5022370;28;20562;-80
2022/03/23 11:55:40;;;;;;;14.70;2.33;;;21.30;99.90;;;;;;5024040;28;20194;-79
2022/03/23 11:58:23;;;;;;;13.10;2.35;;;21.30;99.90;;;;;;5016043;28;20646;-80
2022/03/23 12:00:55;;;;;;;15.90;2.60;;;21.40;99.90;;;;;;5028340;28;20195;-80
2022/03/23 12:03:53;;;;;;;15.90;2.40;;;21.30;99.90;;;;;;5019148;28;21684;-80
2022/03/23 12:06:26;;;;;;;12.15;2.05;;;21.40;99.90;;;;;;5019161;28;20593;-80
2022/03/23 12:08:59;;;;;;;16.05;2.13;;;21.30;99.90;;;;;;5014968;28;20218;-81
2022/03/23 12:11:52;;;;;;;16.83;2.22;;;21.40;99.90;;;;;;5023311;28;20213;-80
2022/03/23 12:14:25;;;;;;;16.55;2.75;;;21.30;99.90;;;;;;5017240;28;20241;-80
2022/03/23 12:17:10;;;;;;;12.27;2.15;;;21.30;99.90;;;;;;5012538;28;20677;-82
2022/03/23 12:20:12;;;;;;;13.05;2.30;;;21.30;99.90;;;;;;5016497;28;20219;-79
2022/03/23 12:23:01;;;;;;;16.55;2.72;;;21.30;99.90;;;;;;5015317;28;20213;-81
2022/03/23 12:25:50;;;;;;;13.73;2.17;;;21.30;99.90;;;;;;5022389;28;20218;-81
2022/03/23 12:28:43;;;;;;;13.98;2.25;;;21.20;99.90;;;;;;5029480;28;20657;-80
2022/03/23 12:31:16;;;;;;;15.25;2.13;;;21.30;99.90;;;;;;5017027;28;20564;-80
2022/03/23 12:34:08;;;;;;;15.05;2.15;;;21.30;99.90;;;;;;5009617;28;20559;-81
2022/03/23 12:39:31;;;;;;;10.90;2.20;;;21.30;99.90;;;;;;5026232;28;20190;-86
2022/03/23 12:42:22;;;;;;;14.90;2.40;;;21.30;99.90;;;;;;5016489;28;20225;-79
2022/03/23 12:45:05;;;;;;;10.35;1.88;;;21.30;99.90;;;;;;5010634;28;20233;-80
2022/03/23 12:47:36;;;;;;;14.35;1.80;;;21.30;99.90;;;;;;5014467;28;22211;-80
2022/03/23 12:58:39;;;;;;;11.43;2.08;;;21.20;99.90;;;;;;5017914;28;20578;-82
2022/03/23 13:01:14;;;;;;;12.20;1.95;;;21.20;99.90;;;;;;5017493;28;20254;-80
2022/03/23 13:03:59;;;;;;;10.73;2.05;;;21.20;99.90;;;;;;5022436;28;20195;-81
2022/03/23 13:06:41;;;;;;;15.65;2.03;;;21.20;99.90;;;;;;5014957;28;20183;-82
2022/03/23 13:09:14;;;;;;;7.93;1.70;;;21.20;99.90;;;;;;5019383;28;20195;-81
2022/03/23 13:11:58;;;;;;;12.57;1.98;;;21.20;99.90;;;;;;5018113;28;20190;-80
2022/03/23 13:14:32;;;;;;;9.38;2.03;;;21.10;99.90;;;;;;5013224;28;20561;-81
2022/03/23 13:17:03;;;;;;;14.23;1.98;;;21.10;99.90;;;;;;5015139;28;20187;-81
2022/03/23 13:19:34;;;;;;;17.23;2.58;;;21.10;99.90;;;;;;5023429;28;20191;-81
2022/03/23 13:22:04;;;;;;;10.95;1.90;;;21.10;99.90;;;;;;5014519;28;20250;-81
2022/03/23 13:24:35;;;;;;;12.18;1.80;;;21.10;99.90;;;;;;5022585;28;20230;-80
2022/03/23 13:27:14;;;;;;;9.38;2.20;;;21.10;99.90;;;;;;5016501;28;20191;-81
2022/03/23 13:29:47;;;;;;;8.75;2.03;;;21.10;99.90;;;;;;5013943;28;20195;-80
2022/03/23 13:32:18;;;;;;;10.38;1.92;;;21.10;99.90;;;;;;5021227;28;20244;-80
2022/03/23 13:34:56;;;;;;;13.40;2.08;;;21.00;99.90;;;;;;5018932;28;20229;-81
2022/03/23 13:37:27;;;;;;;8.77;1.88;;;21.00;99.90;;;;;;5013187;28;20183;-81
2022/03/23 13:39:57;;;;;;;10.45;1.92;;;21.10;99.90;;;;;;5022422;28;20202;-81
2022/03/23 13:45:16;;;;;;;11.18;1.95;;;21.10;99.90;;;;;;5014532;28;20688;-75